createdAt,value
2018-09-01T00:05:15.736Z,6.05
2018-09-01T00:11:10.842Z,5.48
2018-09-01T00:17:05.774Z,6.29
2018-09-01T00:23:00.756Z,5.04
2018-09-01T00:28:55.763Z,5.51
2018-09-01T00:34:50.744Z,6.23
2018-09-01T00:40:45.725Z,5.42
2018-09-01T00:46:40.782Z,5.06
2018-09-01T00:52:35.747Z,5.68
2018-09-01T00:58:30.752Z,5.36
2018-09-01T01:04:25.743Z,5.42
2018-09-01T01:10:20.734Z,6
2018-09-01T01:16:15.743Z,5.49
2018-09-01T01:22:10.764Z,5.96
2018-09-01T01:28:05.776Z,5.8
2018-09-01T01:34:00.751Z,5.92
2018-09-01T01:39:55.762Z,5.27
2018-09-01T01:45:50.750Z,5.91
2018-09-01T01:51:45.807Z,5.52
2018-09-01T01:57:40.749Z,6.82
2018-09-01T02:03:35.747Z,5.47
2018-09-01T02:09:30.783Z,5.69
2018-09-01T02:15:25.780Z,6.53
2018-09-01T02:21:20.756Z,5.7
2018-09-01T02:27:15.789Z,5.61
2018-09-01T02:33:10.746Z,5.83
2018-09-01T02:39:05.763Z,5.86
2018-09-01T02:45:00.755Z,6.01
2018-09-01T02:50:55.806Z,6.48
2018-09-01T02:56:50.830Z,5.91
2018-09-01T03:02:45.764Z,6
2018-09-01T03:08:40.783Z,4.79
2018-09-01T03:14:35.781Z,5.12
2018-09-01T03:20:30.836Z,5.63
2018-09-01T03:26:25.808Z,4.64
2018-09-01T03:32:20.828Z,5.62
2018-09-01T03:38:15.773Z,5.09
2018-09-01T03:44:10.816Z,4.76
2018-09-01T03:50:05.759Z,4.88
2018-09-01T03:56:00.781Z,5.47
2018-09-01T04:01:55.777Z,6.03
2018-09-01T04:07:50.788Z,7.67
2018-09-01T04:13:45.793Z,7.75
2018-09-01T04:19:40.783Z,10.77
2018-09-01T04:25:35.844Z,10.26
2018-09-01T04:31:30.776Z,10.32
2018-09-01T04:37:25.807Z,12.71
2018-09-01T04:43:20.810Z,15.83
2018-09-01T04:49:15.820Z,14.05
2018-09-01T04:55:10.794Z,10.94
2018-09-01T05:01:05.952Z,8.61
2018-09-01T05:07:00.781Z,7.18
2018-09-01T05:12:55.790Z,3.32
2018-09-01T05:18:50.801Z,2.22
2018-09-01T05:24:45.785Z,2.73
2018-09-01T05:30:40.805Z,2.76
2018-09-01T05:36:35.882Z,3.1
2018-09-01T05:42:30.783Z,2.68
2018-09-01T05:48:25.803Z,2.92
2018-09-01T05:54:20.800Z,2.87
2018-09-01T06:00:15.788Z,2.3
2018-09-01T06:06:10.994Z,3.35
2018-09-01T06:12:05.797Z,2.76
2018-09-01T06:18:01.018Z,3.12
2018-09-01T06:23:56.022Z,2.66
2018-09-01T06:29:50.778Z,2.48
2018-09-01T06:35:45.819Z,2.9
2018-09-01T06:41:40.800Z,2.81
2018-09-01T06:47:35.842Z,6.33
2018-09-01T06:53:30.805Z,3.09
2018-09-01T06:59:25.819Z,3
2018-09-01T07:05:20.794Z,3.12
2018-09-01T07:11:15.800Z,2.56
2018-09-01T07:17:10.805Z,2.62
2018-09-01T07:23:05.819Z,2.75
2018-09-01T07:29:00.798Z,2.93
2018-09-01T07:34:55.810Z,2.55
2018-09-01T07:40:50.793Z,2.52
2018-09-01T07:46:45.774Z,2.69
2018-09-01T07:52:40.806Z,2.4
2018-09-01T07:58:35.795Z,2.71
2018-09-01T08:04:30.804Z,2.37
2018-09-01T08:10:25.817Z,2.88
2018-09-01T08:16:20.819Z,2.97
2018-09-01T08:22:15.835Z,2.63
2018-09-01T08:28:10.823Z,2.85
2018-09-01T08:34:05.817Z,2.48
2018-09-01T08:40:00.802Z,2.71
2018-09-01T08:45:55.820Z,2.83
2018-09-01T08:51:50.823Z,3.33
2018-09-01T08:57:45.815Z,3.1
2018-09-01T09:03:40.848Z,3.23
2018-09-01T09:09:35.863Z,3.08
2018-09-01T09:15:30.828Z,3.24
2018-09-01T09:21:25.825Z,3.51
2018-09-01T09:27:20.871Z,3.41
2018-09-01T09:33:15.820Z,3.1
2018-09-01T09:39:10.871Z,3.08
2018-09-01T09:45:05.838Z,3.65
2018-09-01T09:51:00.825Z,3.71
2018-09-01T09:56:55.846Z,3
2018-09-01T10:02:50.903Z,3.87
2018-09-01T10:08:45.867Z,3.5
2018-09-01T10:14:40.905Z,3.5
2018-09-01T10:20:35.982Z,2.95
2018-09-01T10:26:30.905Z,4
2018-09-01T10:32:25.852Z,3.64
2018-09-01T10:38:20.973Z,3.52
2018-09-01T10:44:15.921Z,3.82
2018-09-01T10:50:10.882Z,3.67
2018-09-01T10:56:05.856Z,3.22
2018-09-01T11:02:00.886Z,3.3
2018-09-01T11:07:55.911Z,3.51
2018-09-01T11:13:50.887Z,3.34
2018-09-01T11:19:45.892Z,3.49
2018-09-01T11:25:40.889Z,3.65
2018-09-01T11:31:35.880Z,3.78
2018-09-01T11:37:30.915Z,3.88
2018-09-01T11:43:25.884Z,3.63
2018-09-01T11:49:20.875Z,3.22
2018-09-01T11:55:15.877Z,3.95
2018-09-01T12:01:10.910Z,3.08
2018-09-01T12:07:05.899Z,3.61
2018-09-01T12:13:00.925Z,3.72
2018-09-01T12:18:55.943Z,2.6
2018-09-01T12:24:50.917Z,3
2018-09-01T12:30:45.913Z,2.36
2018-09-01T12:36:40.902Z,2.97
2018-09-01T12:42:35.906Z,2.99
2018-09-01T12:48:30.910Z,3.31
2018-09-01T12:54:25.911Z,2.87
2018-09-01T13:00:20.911Z,2.35
2018-09-01T13:06:15.908Z,2.51
2018-09-01T13:12:10.928Z,2.61
2018-09-01T13:18:05.938Z,2.59
2018-09-01T13:24:00.915Z,2.31
2018-09-01T13:29:55.923Z,2.57
2018-09-01T13:35:50.956Z,2.53
2018-09-01T13:41:45.931Z,2.24
2018-09-01T13:47:40.958Z,2.15
2018-09-01T13:53:35.935Z,2.48
2018-09-01T13:59:30.934Z,2.55
2018-09-01T14:05:26.019Z,2.4
2018-09-01T14:11:20.936Z,2.18
2018-09-01T14:17:15.938Z,2.88
2018-09-01T14:23:10.963Z,2.09
2018-09-01T14:29:05.979Z,3.07
2018-09-01T14:35:00.943Z,2.03
2018-09-01T14:40:55.954Z,2.47
2018-09-01T14:46:50.945Z,2.66
2018-09-01T14:52:45.959Z,3.11
2018-09-01T14:58:40.959Z,3
2018-09-01T15:04:35.971Z,2.46
2018-09-01T15:10:30.956Z,2.38
2018-09-01T15:16:25.967Z,2.64
2018-09-01T15:22:20.996Z,2.99
2018-09-01T15:28:15.976Z,4.07
2018-09-01T15:34:10.958Z,2.97
2018-09-01T15:40:05.956Z,2.9
2018-09-01T15:46:00.967Z,2.59
2018-09-01T15:51:55.978Z,2.9
2018-09-01T15:57:50.965Z,3.05
2018-09-01T16:03:46.050Z,3.02
2018-09-01T16:09:40.991Z,2.57
2018-09-01T16:15:35.980Z,2.68
2018-09-01T16:21:30.976Z,3.1
2018-09-01T16:27:25.988Z,2.22
2018-09-01T16:33:21.002Z,2.87
2018-09-01T16:39:15.978Z,2.57
2018-09-01T16:45:10.994Z,2.68
2018-09-01T16:51:06.006Z,2.68
2018-09-01T16:57:01.004Z,4.69
2018-09-01T17:02:55.998Z,3.73
2018-09-01T17:08:50.993Z,3.04
2018-09-01T17:14:46.008Z,3.9
2018-09-01T17:20:41.018Z,3.55
2018-09-01T17:26:36.037Z,2.99
2018-09-01T17:32:31.039Z,3.14
2018-09-01T17:38:26.032Z,2.73
2018-09-01T17:44:21.024Z,2.53
2018-09-01T17:50:16.043Z,2.6
2018-09-01T17:56:11.042Z,2.63
2018-09-01T18:02:06.067Z,2.83
2018-09-01T18:08:01.003Z,2.78
2018-09-01T18:13:56.044Z,2.59
2018-09-01T18:19:51.070Z,2.88
2018-09-01T18:25:46.032Z,2.71
2018-09-01T18:31:41.036Z,2.37
2018-09-01T18:37:36.020Z,3.1
2018-09-01T18:43:31.041Z,2.46
2018-09-01T18:49:26.018Z,2.31
2018-09-01T18:55:21.274Z,2.42
2018-09-01T19:01:16.079Z,3.09
2018-09-01T19:07:11.048Z,2.76
2018-09-01T19:13:06.042Z,2.55
2018-09-01T19:19:01.040Z,2.67
2018-09-01T19:24:56.041Z,2.58
2018-09-01T19:30:51.102Z,2.98
2018-09-01T19:36:46.054Z,3.07
2018-09-01T19:42:41.037Z,2.45
2018-09-01T19:48:36.072Z,2.77
2018-09-01T19:54:31.052Z,2.82
2018-09-01T20:00:26.056Z,2.92
2018-09-01T20:06:21.040Z,2.9
2018-09-01T20:12:16.082Z,2.92
2018-09-01T20:18:11.088Z,2.73
2018-09-01T20:24:06.070Z,2.37
2018-09-01T20:30:01.062Z,2.23
2018-09-01T20:35:56.041Z,2.11
2018-09-01T20:41:51.091Z,2.61
2018-09-01T20:47:46.057Z,2.88
2018-09-01T20:53:41.061Z,2.47
2018-09-01T20:59:36.048Z,2.87
2018-09-01T21:05:31.063Z,2.71
2018-09-01T21:11:26.052Z,2.46
2018-09-01T21:17:21.060Z,2.22
2018-09-01T21:23:16.039Z,2.54
2018-09-01T21:29:11.076Z,2.4
2018-09-01T21:35:06.170Z,2.72
2018-09-01T21:41:01.059Z,2.51
2018-09-01T21:46:56.051Z,2.6
2018-09-01T21:52:51.059Z,2.79
2018-09-01T21:58:46.066Z,2.53
2018-09-01T22:04:41.081Z,2.59
2018-09-01T22:10:36.061Z,2.53
2018-09-01T22:16:31.058Z,2.38
2018-09-01T22:22:26.072Z,3.27
2018-09-01T22:28:21.065Z,2.66
2018-09-01T22:34:16.104Z,2.68
2018-09-01T22:40:11.059Z,2.83
2018-09-01T22:46:06.075Z,2.83
2018-09-01T22:52:01.088Z,2.67
2018-09-01T22:57:56.083Z,2.51
2018-09-01T23:03:51.079Z,2.51
2018-09-01T23:09:46.048Z,2.73
2018-09-01T23:15:41.086Z,2.63
2018-09-01T23:21:36.061Z,2.67
2018-09-01T23:27:31.084Z,2.65
2018-09-01T23:33:26.129Z,3.01
2018-09-01T23:39:21.061Z,2.94
2018-09-01T23:45:16.067Z,2.72
2018-09-01T23:51:11.085Z,2.56
2018-09-01T23:57:06.119Z,2.68
